Tipton Airport
KFME : now visible

Airfield :











YOU CAN JOIN US ON...

 
LOGIN :

Register | Disclaimer

   EN    FR    IT 

 









Legend :    VFR   Marginal VFR   IFR   Intensive IFR   Very Intensive IFR
Visi :
Ceiling :
>= 8 km
>= 3000ft
5 to 8 km
1000 to 3000 ft
1500m to 5 km
500 to 1000 ft
800 to 1500m
200 to 500 ft
< 800m
< 200 ft
Symbols :   Thunderstorms  Fog  Heavy snow  Heavy precipitations  Wind > 20 kt







- Airport Elevation : 150 ft


KFME - Tipton

CURRENT METAR :
  • 162221Z AUTO 11006KT 10SM SCT090 BKN120 27/18 A2999 RMK AO1

EXPIRED METARs :
  • 162203Z AUTO 12006KT 10SM SCT075 SCT090 27/18 A2999 RMK AO1
  • 162142Z AUTO 09007KT 10SM BKN075 27/18 A2998 RMK AO1
  • 162121Z AUTO 08006KT 10SM BKN075 28/18 A2998 RMK AO1
  • 162103Z AUTO 10008KT 10SM OVC075 29/18 A2998 RMK AO1
  • 162042Z AUTO 11009KT 10SM BKN075 OVC085 30/17 A2998 RMK AO1
  • 162021Z AUTO 00000KT 10SM 31/13 A2998 RMK AO1
  • 162003Z AUTO 33003KT 10SM 31/13 A2998 RMK AO1
  • 161942Z AUTO 29006KT 10SM 31/13 A2999 RMK AO1

TAF N/A
No reported NOTAMs for that airfield.



MET'MAP, your aeronautical weather chart ! - Copyright ORBIFLY December 2007 - Disclaimer

ORBIFLY MET'MAP TEAM :

Programming & Development : Alexandra Zaïnal
Concept & Development : Baudouin d'Aumeries
Co-Development & Prog : Marc-Olivier Méhu
Technical & hardware support : Manuel Goepfert

Contact : metmap@orbifly.com




SOURCES & CREDITS :

   NOAA       Earth
Advisory